createdAt,value
2019-01-04T00:01:33.363Z,6.93
2019-01-04T00:04:03.379Z,2.77
2019-01-04T00:06:32.810Z,3.40
2019-01-04T00:09:02.241Z,4.57
2019-01-04T00:11:31.583Z,5.00
2019-01-04T00:14:00.967Z,3.50
2019-01-04T00:16:30.551Z,4.13
2019-01-04T00:19:00.591Z,4.70
2019-01-04T00:21:30.092Z,3.43
2019-01-04T00:23:59.535Z,2.93
2019-01-04T00:26:29.010Z,3.50
2019-01-04T00:28:58.551Z,4.17
2019-01-04T00:31:28.007Z,3.40
2019-01-04T00:33:57.463Z,3.03
2019-01-04T00:36:26.815Z,9.53
2019-01-04T00:38:56.382Z,3.33
2019-01-04T00:41:25.995Z,3.00
2019-01-04T00:43:55.588Z,4.10
2019-01-04T00:46:24.928Z,3.80
2019-01-04T00:48:54.885Z,4.53
2019-01-04T00:51:24.391Z,4.07
2019-01-04T00:53:54.056Z,3.80
2019-01-04T00:56:38.239Z,1.70
2019-01-04T00:59:45.805Z,1.57
2019-01-04T01:02:20.883Z,1.60
2019-01-04T01:04:54.859Z,2.53
2019-01-04T01:08:00.850Z,4.00
2019-01-04T01:11:10.264Z,4.93
2019-01-04T01:14:11.847Z,1.27
2019-01-04T01:16:53.127Z,3.07
2019-01-04T01:19:31.592Z,4.57
2019-01-04T01:22:22.357Z,3.43
2019-01-04T01:25:03.731Z,5.30
2019-01-04T01:28:05.332Z,1.27
2019-01-04T01:30:54.560Z,2.30
2019-01-04T01:33:32.878Z,3.80
2019-01-04T01:36:21.969Z,5.13
2019-01-04T01:39:15.752Z,2.43
2019-01-04T01:42:21.609Z,1.43
2019-01-04T01:45:03.991Z,1.70
2019-01-04T01:47:36.419Z,2.30
2019-01-04T01:50:26.993Z,0.80
2019-01-04T01:52:56.395Z,1.23
2019-01-04T01:55:25.796Z,1.97
2019-01-04T01:57:55.138Z,2.53
2019-01-04T02:00:24.591Z,2.77
2019-01-04T02:03:08.845Z,3.13
2019-01-04T02:05:38.291Z,3.40
2019-01-04T02:08:07.818Z,4.80
2019-01-04T02:10:37.265Z,2.30
2019-01-04T02:13:06.704Z,5.30
2019-01-04T02:15:36.236Z,3.60
2019-01-04T02:18:05.762Z,4.60
2019-01-04T02:20:35.160Z,3.07
2019-01-04T02:23:04.656Z,4.63
2019-01-04T02:25:34.218Z,2.97
2019-01-04T02:28:03.662Z,4.80
2019-01-04T02:30:33.047Z,3.53
2019-01-04T02:33:02.466Z,3.57
2019-01-04T02:35:31.998Z,3.20
2019-01-04T02:38:01.511Z,4.57
2019-01-04T02:40:30.898Z,5.43
2019-01-04T02:43:00.262Z,4.90
2019-01-04T02:45:30.638Z,1.83
2019-01-04T02:48:00.335Z,2.30
2019-01-04T02:50:29.783Z,3.93
2019-01-04T02:52:59.132Z,3.90
2019-01-04T02:55:28.660Z,4.00
2019-01-04T02:57:58.012Z,4.90
2019-01-04T03:00:27.396Z,3.13
2019-01-04T03:02:56.810Z,3.37
2019-01-04T03:05:26.207Z,4.97
2019-01-04T03:07:55.550Z,5.97
2019-01-04T03:10:25.191Z,8.00
2019-01-04T03:12:54.549Z,3.07
2019-01-04T03:15:23.926Z,6.70
2019-01-04T03:17:53.272Z,4.10
2019-01-04T03:20:22.856Z,7.77
2019-01-04T03:22:52.199Z,4.07
2019-01-04T03:25:21.646Z,4.57
2019-01-04T03:27:51.003Z,4.83
2019-01-04T03:30:20.615Z,5.03
2019-01-04T03:32:50.107Z,8.37
2019-01-04T03:35:19.727Z,2.93
2019-01-04T03:37:49.084Z,3.27
2019-01-04T03:40:19.998Z,10.10
2019-01-04T03:42:49.506Z,6.10
2019-01-04T03:45:19.130Z,1.97
2019-01-04T03:47:48.661Z,3.93
2019-01-04T03:50:18.262Z,4.67
2019-01-04T03:52:49.318Z,5.27
2019-01-04T03:55:20.420Z,4.83
2019-01-04T03:58:01.395Z,1.63
2019-01-04T04:00:31.048Z,9.27
2019-01-04T04:03:00.538Z,8.10
2019-01-04T04:05:30.004Z,8.13
2019-01-04T04:07:59.401Z,4.33
2019-01-04T04:10:30.753Z,5.63
2019-01-04T04:13:00.149Z,10.33
2019-01-04T04:15:29.767Z,4.53
2019-01-04T04:17:59.155Z,8.43
2019-01-04T04:20:28.601Z,7.53
2019-01-04T04:22:58.041Z,6.47
2019-01-04T04:25:27.680Z,9.90
2019-01-04T04:27:58.808Z,6.17
2019-01-04T04:30:28.366Z,5.40
2019-01-04T04:32:57.839Z,6.20
2019-01-04T04:35:40.423Z,11.43
2019-01-04T04:38:10.019Z,6.57
2019-01-04T04:40:39.612Z,5.40
2019-01-04T04:43:09.160Z,5.83
2019-01-04T04:45:38.697Z,11.03
2019-01-04T04:48:08.231Z,7.90
2019-01-04T04:50:39.185Z,5.57
2019-01-04T04:53:08.542Z,6.63
2019-01-04T04:55:37.987Z,5.03
2019-01-04T04:58:07.394Z,8.07
2019-01-04T05:00:36.844Z,9.10
2019-01-04T05:03:06.189Z,3.97
2019-01-04T05:05:35.739Z,6.73
2019-01-04T05:08:05.231Z,5.50
2019-01-04T05:10:34.682Z,5.80
2019-01-04T05:13:04.027Z,3.40
2019-01-04T05:15:33.419Z,11.73
2019-01-04T05:18:02.771Z,9.43
2019-01-04T05:20:32.305Z,3.40
2019-01-04T05:23:01.718Z,7.03
2019-01-04T05:25:31.334Z,5.50
2019-01-04T05:28:00.672Z,7.27
2019-01-04T05:30:30.060Z,8.93
2019-01-04T05:32:59.404Z,6.97
2019-01-04T05:35:30.326Z,7.90
2019-01-04T05:37:59.727Z,6.77
2019-01-04T05:40:29.259Z,13.33
2019-01-04T05:42:58.605Z,5.43
2019-01-04T05:45:28.437Z,11.60
2019-01-04T05:47:57.786Z,5.97
2019-01-04T05:50:28.757Z,9.57
2019-01-04T05:52:58.260Z,10.93
2019-01-04T05:55:27.632Z,6.13
2019-01-04T05:57:56.977Z,10.57
2019-01-04T06:00:26.413Z,9.93
2019-01-04T06:02:55.923Z,6.23
2019-01-04T06:05:25.474Z,11.30
2019-01-04T06:07:54.821Z,8.70
2019-01-04T06:10:26.123Z,8.77
2019-01-04T06:12:55.500Z,11.80
2019-01-04T06:15:24.943Z,9.67
2019-01-04T06:17:54.335Z,9.93
2019-01-04T06:20:23.806Z,10.27
2019-01-04T06:22:53.151Z,12.17
2019-01-04T06:25:22.607Z,9.50
2019-01-04T06:27:52.128Z,7.77
2019-01-04T06:30:21.515Z,11.73
2019-01-04T06:32:51.694Z,8.23
2019-01-04T06:35:21.233Z,8.87
2019-01-04T06:37:50.659Z,11.80
2019-01-04T06:40:20.247Z,12.90
2019-01-04T06:42:49.761Z,12.97
2019-01-04T06:45:19.143Z,10.27
2019-01-04T06:47:48.494Z,11.87
2019-01-04T06:50:18.155Z,10.37
2019-01-04T06:52:47.842Z,12.90
2019-01-04T06:55:20.327Z,9.47
2019-01-04T06:57:49.827Z,15.83
2019-01-04T07:00:19.354Z,11.50
2019-01-04T07:02:48.777Z,9.17
2019-01-04T07:05:18.327Z,8.90
2019-01-04T07:07:47.682Z,7.00
2019-01-04T07:10:17.887Z,10.57
2019-01-04T07:12:47.336Z,10.10
2019-01-04T07:15:16.801Z,7.00
2019-01-04T07:17:47.254Z,13.50
2019-01-04T07:20:16.823Z,11.10
2019-01-04T07:22:50.496Z,7.77
2019-01-04T07:25:19.954Z,11.43
2019-01-04T07:27:49.446Z,10.17
2019-01-04T07:30:18.978Z,9.97
2019-01-04T07:32:48.411Z,9.07
2019-01-04T07:35:19.415Z,10.67
2019-01-04T07:37:48.844Z,12.67
2019-01-04T07:40:18.497Z,6.83
2019-01-04T07:42:47.911Z,9.70
2019-01-04T07:45:18.031Z,7.70
2019-01-04T07:47:47.492Z,9.07
2019-01-04T07:50:17.142Z,14.13
2019-01-04T07:52:46.566Z,9.37
2019-01-04T07:55:15.956Z,8.53
2019-01-04T07:57:45.300Z,10.40
2019-01-04T08:00:15.025Z,10.90
2019-01-04T08:02:45.134Z,20.70
2019-01-04T08:05:16.973Z,14.10
2019-01-04T08:07:46.483Z,13.77
2019-01-04T08:10:16.010Z,10.40
2019-01-04T08:12:45.494Z,11.53
2019-01-04T08:15:14.963Z,9.93
2019-01-04T08:17:44.392Z,14.60
2019-01-04T08:20:14.055Z,12.27
2019-01-04T08:22:43.478Z,11.20
2019-01-04T08:25:13.502Z,11.33
2019-01-04T08:27:42.989Z,16.47
2019-01-04T08:30:12.604Z,11.67
2019-01-04T08:32:42.027Z,14.53
2019-01-04T08:35:11.736Z,12.73
2019-01-04T08:37:41.160Z,15.27
2019-01-04T08:40:10.982Z,16.83
2019-01-04T08:42:40.435Z,15.17
2019-01-04T08:45:09.987Z,11.80
2019-01-04T08:47:39.477Z,16.57
2019-01-04T08:50:09.567Z,14.73
2019-01-04T08:52:58.323Z,13.10
2019-01-04T08:55:27.693Z,17.37
2019-01-04T08:57:57.163Z,21.93
2019-01-04T09:00:26.630Z,13.93
2019-01-04T09:02:56.388Z,17.67
2019-01-04T09:05:30.197Z,11.07
2019-01-04T09:07:59.590Z,13.27
2019-01-04T09:10:29.404Z,16.37
2019-01-04T09:12:58.932Z,13.83
2019-01-04T09:15:28.321Z,19.57
2019-01-04T09:17:57.779Z,16.10
2019-01-04T09:20:27.256Z,15.77
2019-01-04T09:22:57.234Z,15.13
2019-01-04T09:25:26.774Z,15.47
2019-01-04T09:27:56.291Z,18.37
2019-01-04T09:30:25.785Z,13.60
2019-01-04T09:32:55.237Z,9.73
2019-01-04T09:35:24.591Z,13.80
2019-01-04T09:37:54.031Z,11.97
2019-01-04T09:40:23.422Z,10.97
2019-01-04T09:42:52.799Z,11.87
2019-01-04T09:45:22.151Z,9.73
2019-01-04T09:47:51.523Z,13.80
2019-01-04T09:50:20.905Z,13.17
2019-01-04T09:52:50.345Z,12.67
2019-01-04T09:55:22.491Z,19.67
2019-01-04T09:57:52.058Z,16.17
2019-01-04T10:00:21.660Z,14.50
2019-01-04T10:02:51.087Z,17.07
2019-01-04T10:05:20.527Z,21.40
2019-01-04T10:07:50.063Z,15.77
2019-01-04T10:10:19.486Z,19.10
2019-01-04T10:12:48.935Z,17.50
2019-01-04T10:15:18.289Z,20.93
2019-01-04T10:17:47.837Z,17.23
2019-01-04T10:20:17.254Z,21.40
2019-01-04T10:22:46.636Z,22.53
2019-01-04T10:25:15.993Z,17.47
2019-01-04T10:27:45.600Z,11.63
2019-01-04T10:30:25.781Z,12.30
2019-01-04T10:32:55.285Z,11.13
2019-01-04T10:35:24.646Z,16.43
2019-01-04T10:37:54.297Z,13.33
2019-01-04T10:40:23.806Z,15.60
2019-01-04T10:42:53.315Z,15.70
2019-01-04T10:45:22.757Z,16.23
2019-01-04T10:47:52.297Z,15.30
2019-01-04T10:50:21.723Z,16.30
2019-01-04T10:52:51.138Z,17.67
2019-01-04T10:55:20.870Z,14.97
2019-01-04T10:57:50.270Z,16.87
2019-01-04T11:00:19.787Z,13.43
2019-01-04T11:02:49.263Z,8.40
2019-01-04T11:05:18.781Z,16.20
2019-01-04T11:07:48.248Z,15.23
2019-01-04T11:10:19.111Z,15.00
2019-01-04T11:12:48.572Z,12.97
2019-01-04T11:15:18.137Z,8.93
2019-01-04T11:17:47.641Z,17.53
2019-01-04T11:20:37.455Z,7.90
2019-01-04T11:23:32.496Z,12.03
2019-01-04T11:26:10.925Z,11.23
2019-01-04T11:28:43.487Z,13.20
2019-01-04T11:31:25.010Z,15.73
2019-01-04T11:34:09.643Z,8.53
2019-01-04T11:37:07.803Z,11.63
2019-01-04T11:39:58.327Z,15.10
2019-01-04T11:42:42.928Z,10.03
2019-01-04T11:45:27.744Z,19.40
2019-01-04T11:48:09.494Z,16.23
2019-01-04T11:51:08.680Z,18.27
2019-01-04T11:53:38.463Z,16.17
2019-01-04T11:56:07.858Z,12.17
2019-01-04T11:58:37.243Z,11.43
2019-01-04T12:01:06.439Z,13.63
2019-01-04T12:03:35.853Z,21.30
2019-01-04T12:06:05.475Z,18.13
2019-01-04T12:08:34.857Z,19.03
2019-01-04T12:11:04.372Z,14.13
2019-01-04T12:13:33.770Z,11.53
2019-01-04T12:16:03.219Z,11.30
2019-01-04T12:18:32.684Z,13.13
2019-01-04T12:21:02.067Z,12.73
2019-01-04T12:23:31.651Z,22.10
2019-01-04T12:26:01.267Z,16.20
2019-01-04T12:28:30.802Z,14.40
2019-01-04T12:31:00.251Z,14.10
2019-01-04T12:33:30.016Z,21.77
2019-01-04T12:35:59.543Z,11.27
2019-01-04T12:38:29.126Z,16.80
2019-01-04T12:40:58.581Z,15.27
2019-01-04T12:43:27.966Z,11.30
2019-01-04T12:45:57.354Z,15.17
2019-01-04T12:48:26.854Z,15.53
2019-01-04T12:50:56.313Z,17.37
2019-01-04T12:53:25.740Z,13.30
2019-01-04T12:55:55.203Z,19.30
2019-01-04T12:58:24.703Z,14.97
2019-01-04T13:00:54.367Z,15.30
2019-01-04T13:03:23.879Z,19.53
2019-01-04T13:05:53.492Z,12.53
2019-01-04T13:08:23.138Z,17.03
2019-01-04T13:10:52.524Z,16.23
2019-01-04T13:13:21.884Z,17.03
2019-01-04T13:15:51.819Z,15.83
2019-01-04T13:18:21.255Z,19.17
2019-01-04T13:20:50.716Z,14.03
2019-01-04T13:23:21.867Z,12.53
2019-01-04T13:25:51.262Z,17.90
2019-01-04T13:28:20.696Z,14.47
2019-01-04T13:30:50.218Z,12.17
2019-01-04T13:33:19.764Z,14.60
2019-01-04T13:35:49.211Z,14.40
2019-01-04T13:38:20.072Z,21.10
2019-01-04T13:40:49.779Z,18.57
2019-01-04T13:43:19.208Z,14.10
2019-01-04T13:45:49.263Z,16.77
2019-01-04T13:48:18.622Z,18.57
2019-01-04T13:50:48.120Z,14.93
2019-01-04T13:53:17.541Z,14.53
2019-01-04T13:55:47.007Z,14.03
2019-01-04T13:58:16.424Z,13.37
2019-01-04T14:00:46.537Z,13.93
2019-01-04T14:03:16.086Z,12.43
2019-01-04T14:05:47.345Z,17.43
2019-01-04T14:08:17.638Z,10.93
2019-01-04T14:10:47.145Z,15.30
2019-01-04T14:13:16.642Z,15.83
2019-01-04T14:15:46.017Z,16.80
2019-01-04T14:18:15.419Z,25.43
2019-01-04T14:20:44.852Z,14.93
2019-01-04T14:23:14.249Z,13.93
2019-01-04T14:25:43.692Z,13.13
2019-01-04T14:28:13.259Z,18.10
2019-01-04T14:30:42.716Z,16.43
2019-01-04T14:33:12.068Z,13.93
2019-01-04T14:35:41.453Z,14.10
2019-01-04T14:38:10.821Z,15.63
2019-01-04T14:40:40.272Z,14.50
2019-01-04T14:43:11.286Z,18.30
2019-01-04T14:45:40.710Z,19.83
2019-01-04T14:48:10.207Z,16.97
2019-01-04T14:50:39.720Z,20.77
2019-01-04T14:53:09.070Z,14.27
2019-01-04T14:55:38.471Z,15.47
2019-01-04T14:58:07.833Z,12.47
2019-01-04T15:00:37.322Z,15.77
2019-01-04T15:03:06.931Z,13.37
2019-01-04T15:05:36.683Z,15.77
2019-01-04T15:08:06.180Z,16.43
2019-01-04T15:10:35.713Z,17.40
2019-01-04T15:13:05.270Z,15.40
2019-01-04T15:15:34.960Z,19.70
2019-01-04T15:18:04.364Z,14.57
2019-01-04T15:20:33.748Z,17.83
2019-01-04T15:23:03.292Z,17.63
2019-01-04T15:25:32.842Z,19.53
2019-01-04T15:28:02.311Z,17.17
2019-01-04T15:30:31.774Z,20.60
2019-01-04T15:33:01.167Z,19.70
2019-01-04T15:35:33.200Z,25.80
2019-01-04T15:38:02.767Z,22.60
2019-01-04T15:40:32.161Z,13.37
2019-01-04T15:43:01.687Z,16.43
2019-01-04T15:45:31.243Z,18.93
2019-01-04T15:48:00.628Z,13.50
2019-01-04T15:50:30.037Z,10.70
2019-01-04T15:52:59.527Z,15.50
2019-01-04T15:55:30.782Z,16.37
2019-01-04T15:58:00.415Z,16.63
2019-01-04T16:00:29.870Z,19.53
2019-01-04T16:02:59.254Z,15.93
2019-01-04T16:05:28.636Z,18.67
2019-01-04T16:07:58.022Z,19.00
2019-01-04T16:10:27.600Z,16.17
2019-01-04T16:12:56.963Z,20.77
2019-01-04T16:15:26.419Z,20.07
2019-01-04T16:17:55.893Z,18.97
2019-01-04T16:20:25.362Z,28.60
2019-01-04T16:22:54.816Z,21.57
2019-01-04T16:25:25.775Z,19.07
2019-01-04T16:27:55.202Z,20.83
2019-01-04T16:30:26.129Z,19.23
2019-01-04T16:32:55.559Z,18.27
2019-01-04T16:35:25.219Z,24.63
2019-01-04T16:37:54.660Z,23.50
2019-01-04T16:40:24.190Z,20.00
2019-01-04T16:42:53.543Z,22.67
2019-01-04T16:45:22.927Z,20.93
2019-01-04T16:47:52.355Z,20.47
2019-01-04T16:50:21.992Z,25.43
2019-01-04T16:52:51.489Z,13.63
2019-01-04T16:55:20.950Z,19.43
2019-01-04T16:57:50.308Z,20.93
2019-01-04T17:00:19.759Z,17.60
2019-01-04T17:02:49.291Z,21.17
2019-01-04T17:05:18.832Z,17.93
2019-01-04T17:07:48.300Z,14.60
2019-01-04T17:10:17.716Z,16.90
2019-01-04T17:12:47.164Z,19.40
2019-01-04T17:15:16.636Z,19.13
2019-01-04T17:17:46.036Z,17.60
2019-01-04T17:20:15.439Z,20.33
2019-01-04T17:22:44.864Z,18.43
2019-01-04T17:25:14.707Z,20.57
2019-01-04T17:27:44.210Z,19.97
2019-01-04T17:30:13.792Z,25.60
2019-01-04T17:32:43.375Z,13.53
2019-01-04T17:35:12.903Z,19.87
2019-01-04T17:37:42.334Z,16.47
2019-01-04T17:40:11.909Z,20.63
2019-01-04T17:42:41.349Z,20.53
2019-01-04T17:45:10.803Z,16.60
2019-01-04T17:47:40.230Z,18.47
2019-01-04T17:50:11.234Z,15.13
2019-01-04T17:52:40.657Z,21.77
2019-01-04T17:55:10.219Z,21.73
2019-01-04T17:57:39.711Z,23.40
2019-01-04T18:00:10.459Z,14.10
2019-01-04T18:02:40.056Z,21.60
2019-01-04T18:05:09.661Z,17.30
2019-01-04T18:07:39.159Z,14.80
2019-01-04T18:10:09.483Z,15.20
2019-01-04T18:12:38.993Z,21.20
2019-01-04T18:15:08.806Z,14.87
2019-01-04T18:17:38.407Z,18.23
2019-01-04T18:20:10.900Z,14.20
2019-01-04T18:22:40.634Z,14.90
2019-01-04T18:25:10.121Z,13.33
2019-01-04T18:27:39.616Z,12.03
2019-01-04T18:30:10.075Z,8.30
2019-01-04T18:32:39.516Z,22.60
2019-01-04T18:35:09.131Z,17.73
2019-01-04T18:37:38.706Z,13.13
2019-01-04T18:40:14.645Z,11.40
2019-01-04T18:42:44.073Z,19.60
2019-01-04T18:45:13.651Z,18.30
2019-01-04T18:47:43.052Z,11.97
2019-01-04T18:50:15.392Z,18.40
2019-01-04T18:52:44.803Z,17.87
2019-01-04T18:55:14.190Z,13.87
2019-01-04T18:57:43.625Z,14.97
2019-01-04T19:00:13.343Z,15.67
2019-01-04T19:02:42.940Z,17.90
2019-01-04T19:05:12.358Z,23.57
2019-01-04T19:07:41.892Z,12.27
2019-01-04T19:10:11.585Z,19.63
2019-01-04T19:12:41.047Z,16.97
2019-01-04T19:15:11.187Z,25.13
2019-01-04T19:17:41.198Z,14.90
2019-01-04T19:20:12.439Z,11.40
2019-01-04T19:22:42.090Z,16.27
2019-01-04T19:25:11.801Z,12.20
2019-01-04T19:27:41.260Z,14.83
2019-01-04T19:30:10.856Z,21.83
2019-01-04T19:32:40.438Z,13.40
2019-01-04T19:35:09.926Z,17.53
2019-01-04T19:37:39.606Z,18.57
2019-01-04T19:40:09.229Z,20.80
2019-01-04T19:42:38.695Z,16.60
2019-01-04T19:45:08.363Z,17.30
2019-01-04T19:47:37.757Z,18.60
2019-01-04T19:50:15.731Z,13.73
2019-01-04T19:52:45.136Z,18.30
2019-01-04T19:55:14.717Z,14.53
2019-01-04T19:57:44.324Z,22.77
2019-01-04T20:00:14.875Z,25.60
2019-01-04T20:02:44.743Z,16.67
2019-01-04T20:05:22.353Z,18.17
2019-01-04T20:10:45.321Z,20.40
2019-01-04T20:13:39.388Z,17.60
2019-01-04T20:16:28.536Z,21.37
2019-01-04T20:19:02.641Z,21.60
2019-01-04T20:21:34.583Z,20.87
2019-01-04T20:24:05.977Z,24.13
2019-01-04T20:26:41.354Z,20.07
2019-01-04T20:29:27.316Z,17.60
2019-01-04T20:32:01.114Z,21.63
2019-01-04T20:34:47.531Z,21.13
2019-01-04T20:37:33.891Z,27.10
2019-01-04T20:40:23.651Z,20.67
2019-01-04T20:42:54.687Z,23.50
2019-01-04T20:45:25.684Z,19.57
2019-01-04T20:47:57.480Z,24.80
2019-01-04T20:50:28.490Z,23.30
2019-01-04T20:52:59.591Z,20.47
2019-01-04T20:55:47.083Z,23.50
2019-01-04T20:58:22.346Z,22.90
2019-01-04T21:01:09.998Z,15.40
2019-01-04T21:03:43.562Z,18.60
2019-01-04T21:06:20.478Z,13.77
2019-01-04T21:09:07.031Z,19.47
2019-01-04T21:11:46.975Z,20.87
2019-01-04T21:14:23.542Z,19.40
2019-01-04T21:17:00.403Z,18.80
2019-01-04T21:19:49.679Z,26.00
2019-01-04T21:22:39.124Z,23.20
2019-01-04T21:25:28.158Z,15.83
2019-01-04T21:27:59.200Z,23.50
2019-01-04T21:30:36.074Z,26.20
2019-01-04T21:33:07.186Z,23.90
2019-01-04T21:35:41.222Z,19.23
2019-01-04T21:38:29.146Z,21.90
2019-01-04T21:41:06.248Z,14.80
2019-01-04T21:43:53.786Z,25.60
2019-01-04T21:46:27.601Z,23.23
2019-01-04T21:49:01.824Z,27.10
2019-01-04T21:51:42.187Z,27.80
2019-01-04T21:54:22.112Z,19.33
2019-01-04T21:56:53.226Z,24.43
2019-01-04T21:59:24.299Z,25.03
2019-01-04T22:01:58.125Z,21.03
2019-01-04T22:04:45.748Z,21.20
2019-01-04T22:07:29.286Z,20.73
2019-01-04T22:10:16.628Z,18.10
2019-01-04T22:13:05.590Z,23.97
2019-01-04T22:15:36.680Z,23.97
2019-01-04T22:18:08.498Z,24.97
2019-01-04T22:20:45.355Z,19.40
2019-01-04T22:23:32.684Z,16.47
2019-01-04T22:26:39.619Z,26.20
2019-01-04T22:29:16.776Z,19.20
2019-01-04T22:31:50.649Z,19.57
2019-01-04T22:34:41.132Z,21.67
2019-01-04T22:37:12.134Z,25.47
2019-01-04T22:39:59.147Z,24.77
2019-01-04T22:42:46.215Z,19.50
2019-01-04T22:45:20.500Z,20.67
2019-01-04T22:47:57.257Z,25.53
2019-01-04T22:50:44.603Z,22.53
2019-01-04T22:53:27.599Z,32.00
2019-01-04T22:56:17.068Z,26.60
2019-01-04T22:58:48.080Z,33.90
2019-01-04T23:01:36.235Z,23.53
2019-01-04T23:04:22.687Z,32.77
2019-01-04T23:07:02.609Z,21.37
2019-01-04T23:09:36.642Z,30.00
2019-01-04T23:12:24.195Z,39.27
2019-01-04T23:15:10.477Z,30.40
2019-01-04T23:17:56.581Z,26.70
2019-01-04T23:20:46.178Z,28.60
2019-01-04T23:23:26.096Z,36.03
2019-01-04T23:26:05.877Z,35.30
2019-01-04T23:28:45.849Z,28.00
2019-01-04T23:31:32.930Z,30.77
2019-01-04T23:34:04.104Z,31.20
2019-01-04T23:36:53.936Z,33.70
2019-01-04T23:39:27.252Z,26.23
2019-01-04T23:41:58.433Z,33.37
2019-01-04T23:44:41.702Z,28.30
2019-01-04T23:47:15.586Z,42.87
2019-01-04T23:49:55.658Z,36.80
2019-01-04T23:52:43.390Z,32.67
2019-01-04T23:55:14.446Z,39.23
2019-01-04T23:58:00.475Z,30.67
